Terminal Aerodrome Forecast
Issued by NWS

Home | Current Version | Previous Version | Text Only | Print | Product List | Glossary On
Versions: 1 2 3 4 5 6 7 8 9 10 11 12 13 14 15 16 17 18 19 20 21 22 23 24
000
FTUS41 KBOX 260536
TAFHYA
TAF
KHYA 260536Z 2606/2706 00000KT 1/2SM FG OVC003
     FM261200 00000KT 2SM BR OVC003
     FM261800 10004KT 6SM BR BKN035
     FM262300 18005KT 3SM BR BKN015
     FM270500 VRB03KT 1/2SM FG OVC003=

USA.gov is the U.S. government's official web portal to all federal, state and local government web resources and services.